sensor_id;sensor_type;location;lat;lon;timestamp;pressure;altitude;pressure_sealevel;temperature;humidity
10079;BME280;5078;42.544;22.966;2023-08-24T00:00:20;94051.13;;;21.79;100.00
10079;BME280;5078;42.544;22.966;2023-08-24T00:02:47;94041.00;;;21.45;100.00
10079;BME280;5078;42.544;22.966;2023-08-24T00:05:14;94048.84;;;21.59;100.00
10079;BME280;5078;42.544;22.966;2023-08-24T00:07:41;94041.94;;;21.51;100.00
10079;BME280;5078;42.544;22.966;2023-08-24T00:10:08;94038.88;;;21.59;100.00
10079;BME280;5078;42.544;22.966;2023-08-24T00:12:36;94046.53;;;21.39;100.00
10079;BME280;5078;42.544;22.966;2023-08-24T00:15:04;94045.69;;;21.38;100.00
10079;BME280;5078;42.544;22.966;2023-08-24T00:17:31;94043.38;;;21.42;100.00
10079;BME280;5078;42.544;22.966;2023-08-24T00:19:57;94049.25;;;21.15;100.00
10079;BME280;5078;42.544;22.966;2023-08-24T00:22:24;94038.13;;;20.76;100.00
10079;BME280;5078;42.544;22.966;2023-08-24T00:24:51;94031.00;;;20.82;100.00
10079;BME280;5078;42.544;22.966;2023-08-24T00:27:18;94032.16;;;20.74;100.00
10079;BME280;5078;42.544;22.966;2023-08-24T00:29:46;94024.28;;;21.08;100.00
10079;BME280;5078;42.544;22.966;2023-08-24T00:32:13;94018.28;;;21.18;100.00
10079;BME280;5078;42.544;22.966;2023-08-24T00:34:39;94020.88;;;21.13;100.00
10079;BME280;5078;42.544;22.966;2023-08-24T00:37:06;94019.38;;;21.05;100.00
10079;BME280;5078;42.544;22.966;2023-08-24T00:39:33;94021.81;;;21.06;100.00
10079;BME280;5078;42.544;22.966;2023-08-24T00:42:00;94018.53;;;21.16;100.00
10079;BME280;5078;42.544;22.966;2023-08-24T00:44:27;94008.00;;;21.15;100.00
10079;BME280;5078;42.544;22.966;2023-08-24T00:46:55;94002.38;;;21.04;100.00
10079;BME280;5078;42.544;22.966;2023-08-24T00:51:48;94015.28;;;20.90;100.00
10079;BME280;5078;42.544;22.966;2023-08-24T00:54:15;94018.44;;;20.64;100.00
10079;BME280;5078;42.544;22.966;2023-08-24T00:56:43;94023.03;;;20.87;100.00
10079;BME280;5078;42.544;22.966;2023-08-24T00:59:10;94004.75;;;20.77;100.00
10079;BME280;5078;42.544;22.966;2023-08-24T01:01:39;94002.03;;;20.89;100.00
10079;BME280;5078;42.544;22.966;2023-08-24T01:04:07;94008.00;;;20.91;100.00
10079;BME280;5078;42.544;22.966;2023-08-24T01:06:36;94006.38;;;20.90;100.00
10079;BME280;5078;42.544;22.966;2023-08-24T01:09:03;94012.59;;;21.02;100.00
10079;BME280;5078;42.544;22.966;2023-08-24T01:11:39;94001.94;;;20.72;100.00
10079;BME280;5078;42.544;22.966;2023-08-24T01:14:14;94006.50;;;20.95;100.00
10079;BME280;5078;42.544;22.966;2023-08-24T01:16:46;93998.63;;;21.05;100.00
10079;BME280;5078;42.544;22.966;2023-08-24T01:19:25;94003.63;;;21.14;100.00
10079;BME280;5078;42.544;22.966;2023-08-24T01:21:54;94000.41;;;20.88;100.00
10079;BME280;5078;42.544;22.966;2023-08-24T01:24:31;93996.75;;;21.06;100.00
10079;BME280;5078;42.544;22.966;2023-08-24T01:27:03;94001.69;;;20.74;100.00
10079;BME280;5078;42.544;22.966;2023-08-24T01:29:31;94000.19;;;20.66;100.00
10079;BME280;5078;42.544;22.966;2023-08-24T01:31:58;94000.53;;;20.70;100.00
10079;BME280;5078;42.544;22.966;2023-08-24T01:34:25;94007.88;;;20.51;100.00
10079;BME280;5078;42.544;22.966;2023-08-24T01:36:52;94005.78;;;20.76;100.00
10079;BME280;5078;42.544;22.966;2023-08-24T01:39:27;94014.31;;;20.38;100.00
10079;BME280;5078;42.544;22.966;2023-08-24T01:41:57;94012.03;;;20.65;100.00
10079;BME280;5078;42.544;22.966;2023-08-24T01:44:28;94011.31;;;20.70;100.00
10079;BME280;5078;42.544;22.966;2023-08-24T01:46:56;94002.38;;;20.45;100.00
10079;BME280;5078;42.544;22.966;2023-08-24T01:49:25;94007.72;;;20.34;100.00
10079;BME280;5078;42.544;22.966;2023-08-24T01:51:52;94016.97;;;20.26;100.00
10079;BME280;5078;42.544;22.966;2023-08-24T01:54:19;94019.75;;;20.08;100.00
10079;BME280;5078;42.544;22.966;2023-08-24T01:56:47;94018.19;;;19.88;100.00
10079;BME280;5078;42.544;22.966;2023-08-24T01:59:13;94017.09;;;19.77;100.00
10079;BME280;5078;42.544;22.966;2023-08-24T02:01:41;94011.13;;;19.75;100.00
10079;BME280;5078;42.544;22.966;2023-08-24T02:04:08;94006.41;;;19.71;100.00
10079;BME280;5078;42.544;22.966;2023-08-24T02:06:35;94017.78;;;19.73;100.00
10079;BME280;5078;42.544;22.966;2023-08-24T02:09:01;94026.53;;;19.68;100.00
10079;BME280;5078;42.544;22.966;2023-08-24T02:11:29;94019.28;;;19.69;100.00
10079;BME280;5078;42.544;22.966;2023-08-24T02:13:56;94024.16;;;19.90;100.00
10079;BME280;5078;42.544;22.966;2023-08-24T02:16:22;94016.13;;;19.72;100.00
10079;BME280;5078;42.544;22.966;2023-08-24T02:18:50;94033.72;;;19.86;100.00
10079;BME280;5078;42.544;22.966;2023-08-24T02:21:17;94036.81;;;19.71;100.00
10079;BME280;5078;42.544;22.966;2023-08-24T02:23:44;94039.75;;;19.70;100.00
10079;BME280;5078;42.544;22.966;2023-08-24T02:26:10;94040.13;;;19.36;100.00
10079;BME280;5078;42.544;22.966;2023-08-24T02:28:37;94039.38;;;19.29;100.00
10079;BME280;5078;42.544;22.966;2023-08-24T02:31:04;94015.53;;;19.51;100.00
10079;BME280;5078;42.544;22.966;2023-08-24T02:33:31;94027.28;;;19.38;100.00
10079;BME280;5078;42.544;22.966;2023-08-24T02:35:59;94030.66;;;19.52;100.00
10079;BME280;5078;42.544;22.966;2023-08-24T02:38:26;94039.47;;;19.41;100.00
10079;BME280;5078;42.544;22.966;2023-08-24T02:41:00;94040.13;;;19.55;100.00
10079;BME280;5078;42.544;22.966;2023-08-24T02:43:28;94038.84;;;19.39;100.00
10079;BME280;5078;42.544;22.966;2023-08-24T02:46:00;94036.78;;;18.86;100.00
10079;BME280;5078;42.544;22.966;2023-08-24T02:48:28;94039.78;;;19.33;100.00
10079;BME280;5078;42.544;22.966;2023-08-24T02:50:54;94048.63;;;19.52;100.00
10079;BME280;5078;42.544;22.966;2023-08-24T02:53:22;94034.09;;;19.23;100.00
10079;BME280;5078;42.544;22.966;2023-08-24T02:55:49;94035.91;;;19.10;100.00
10079;BME280;5078;42.544;22.966;2023-08-24T02:58:16;94036.56;;;19.24;100.00
10079;BME280;5078;42.544;22.966;2023-08-24T03:00:42;94035.59;;;19.37;100.00
10079;BME280;5078;42.544;22.966;2023-08-24T03:03:09;94028.84;;;19.46;100.00
10079;BME280;5078;42.544;22.966;2023-08-24T03:05:36;94026.75;;;19.48;100.00
10079;BME280;5078;42.544;22.966;2023-08-24T03:08:03;94029.31;;;19.43;100.00
10079;BME280;5078;42.544;22.966;2023-08-24T03:10:34;94020.75;;;19.65;100.00
10079;BME280;5078;42.544;22.966;2023-08-24T03:13:01;94031.59;;;19.76;100.00
10079;BME280;5078;42.544;22.966;2023-08-24T03:15:29;94025.25;;;19.71;100.00
10079;BME280;5078;42.544;22.966;2023-08-24T03:17:56;94039.97;;;19.68;100.00
10079;BME280;5078;42.544;22.966;2023-08-24T03:20:23;94044.63;;;19.43;100.00
10079;BME280;5078;42.544;22.966;2023-08-24T03:22:49;94041.13;;;19.05;100.00
10079;BME280;5078;42.544;22.966;2023-08-24T03:25:16;94043.72;;;19.12;100.00
10079;BME280;5078;42.544;22.966;2023-08-24T03:27:44;94046.44;;;19.30;100.00
10079;BME280;5078;42.544;22.966;2023-08-24T03:30:12;94062.25;;;19.38;100.00
10079;BME280;5078;42.544;22.966;2023-08-24T03:32:39;94059.09;;;19.42;100.00
10079;BME280;5078;42.544;22.966;2023-08-24T03:35:07;94058.13;;;19.36;100.00
10079;BME280;5078;42.544;22.966;2023-08-24T03:37:34;94066.22;;;19.36;100.00
10079;BME280;5078;42.544;22.966;2023-08-24T03:40:01;94068.00;;;19.42;100.00
10079;BME280;5078;42.544;22.966;2023-08-24T03:42:28;94060.75;;;19.43;100.00
10079;BME280;5078;42.544;22.966;2023-08-24T03:44:56;94057.91;;;19.01;100.00
10079;BME280;5078;42.544;22.966;2023-08-24T03:47:23;94063.34;;;18.94;100.00
10079;BME280;5078;42.544;22.966;2023-08-24T03:49:49;94061.28;;;19.14;100.00
10079;BME280;5078;42.544;22.966;2023-08-24T03:52:16;94066.81;;;19.20;100.00
10079;BME280;5078;42.544;22.966;2023-08-24T03:54:43;94063.31;;;19.37;100.00
10079;BME280;5078;42.544;22.966;2023-08-24T03:57:09;94062.94;;;19.15;100.00
10079;BME280;5078;42.544;22.966;2023-08-24T03:59:36;94064.88;;;19.08;100.00
10079;BME280;5078;42.544;22.966;2023-08-24T04:02:04;94067.34;;;19.28;100.00
10079;BME280;5078;42.544;22.966;2023-08-24T04:04:31;94056.41;;;18.61;100.00
10079;BME280;5078;42.544;22.966;2023-08-24T04:06:58;94061.56;;;18.88;100.00
10079;BME280;5078;42.544;22.966;2023-08-24T04:09:25;94071.44;;;19.12;100.00
10079;BME280;5078;42.544;22.966;2023-08-24T04:11:52;94063.19;;;18.39;100.00
10079;BME280;5078;42.544;22.966;2023-08-24T04:14:19;94063.75;;;18.72;100.00
10079;BME280;5078;42.544;22.966;2023-08-24T04:16:45;94073.34;;;18.87;100.00
10079;BME280;5078;42.544;22.966;2023-08-24T04:19:14;94076.28;;;19.04;100.00
10079;BME280;5078;42.544;22.966;2023-08-24T04:21:41;94084.25;;;18.92;100.00
10079;BME280;5078;42.544;22.966;2023-08-24T04:24:07;94073.66;;;18.47;100.00
10079;BME280;5078;42.544;22.966;2023-08-24T04:26:34;94083.22;;;18.43;100.00
10079;BME280;5078;42.544;22.966;2023-08-24T04:29:01;94082.91;;;18.83;100.00
10079;BME280;5078;42.544;22.966;2023-08-24T04:31:28;94080.81;;;18.85;100.00
10079;BME280;5078;42.544;22.966;2023-08-24T04:33:55;94072.00;;;18.78;100.00
10079;BME280;5078;42.544;22.966;2023-08-24T04:36:23;94079.22;;;19.21;100.00
10079;BME280;5078;42.544;22.966;2023-08-24T04:38:49;94079.44;;;19.37;100.00
10079;BME280;5078;42.544;22.966;2023-08-24T04:41:16;94089.81;;;19.71;100.00
10079;BME280;5078;42.544;22.966;2023-08-24T04:43:43;94092.38;;;20.26;100.00
10079;BME280;5078;42.544;22.966;2023-08-24T04:46:09;94098.34;;;20.70;100.00
10079;BME280;5078;42.544;22.966;2023-08-24T04:48:36;94093.94;;;20.99;100.00
10079;BME280;5078;42.544;22.966;2023-08-24T04:51:03;94095.44;;;21.30;100.00
10079;BME280;5078;42.544;22.966;2023-08-24T04:53:31;94098.47;;;21.58;100.00
10079;BME280;5078;42.544;22.966;2023-08-24T04:55:58;94102.44;;;22.07;100.00
10079;BME280;5078;42.544;22.966;2023-08-24T04:58:25;94108.50;;;22.14;100.00
10079;BME280;5078;42.544;22.966;2023-08-24T05:00:52;94100.69;;;22.01;100.00
10079;BME280;5078;42.544;22.966;2023-08-24T05:03:19;94108.25;;;21.87;100.00
10079;BME280;5078;42.544;22.966;2023-08-24T05:05:47;94104.38;;;22.24;100.00
10079;BME280;5078;42.544;22.966;2023-08-24T05:08:13;94107.78;;;22.48;100.00
10079;BME280;5078;42.544;22.966;2023-08-24T05:10:41;94106.16;;;22.64;100.00
10079;BME280;5078;42.544;22.966;2023-08-24T05:13:08;94106.31;;;22.40;100.00
10079;BME280;5078;42.544;22.966;2023-08-24T05:15:35;94115.25;;;22.91;100.00
10079;BME280;5078;42.544;22.966;2023-08-24T05:18:02;94107.03;;;23.15;98.66
10079;BME280;5078;42.544;22.966;2023-08-24T05:20:28;94107.88;;;23.37;97.61
10079;BME280;5078;42.544;22.966;2023-08-24T05:22:55;94095.97;;;23.38;96.20
10079;BME280;5078;42.544;22.966;2023-08-24T05:25:23;94106.88;;;23.82;90.95
10079;BME280;5078;42.544;22.966;2023-08-24T05:27:51;94105.97;;;23.55;92.92
10079;BME280;5078;42.544;22.966;2023-08-24T05:30:18;94109.84;;;23.81;90.01
10079;BME280;5078;42.544;22.966;2023-08-24T05:32:44;94102.63;;;23.86;87.49
10079;BME280;5078;42.544;22.966;2023-08-24T05:35:11;94109.78;;;23.76;90.92
10079;BME280;5078;42.544;22.966;2023-08-24T05:37:38;94103.84;;;24.01;85.83
10079;BME280;5078;42.544;22.966;2023-08-24T05:40:06;94112.44;;;24.42;83.39
10079;BME280;5078;42.544;22.966;2023-08-24T05:42:33;94120.38;;;24.75;78.71
10079;BME280;5078;42.544;22.966;2023-08-24T05:45:03;94110.66;;;24.52;81.36
10079;BME280;5078;42.544;22.966;2023-08-24T05:47:30;94109.41;;;23.89;88.11
10079;BME280;5078;42.544;22.966;2023-08-24T05:49:57;94109.97;;;24.62;80.55
10079;BME280;5078;42.544;22.966;2023-08-24T05:52:24;94111.09;;;24.17;82.61
10079;BME280;5078;42.544;22.966;2023-08-24T05:54:50;94112.03;;;24.06;87.51
10079;BME280;5078;42.544;22.966;2023-08-24T05:57:17;94112.16;;;23.16;93.82
10079;BME280;5078;42.544;22.966;2023-08-24T05:59:44;94114.44;;;23.80;88.21
10079;BME280;5078;42.544;22.966;2023-08-24T06:02:12;94123.75;;;23.51;91.31
10079;BME280;5078;42.544;22.966;2023-08-24T06:04:38;94114.97;;;23.60;90.78
10079;BME280;5078;42.544;22.966;2023-08-24T06:07:05;94119.34;;;22.94;97.77
10079;BME280;5078;42.544;22.966;2023-08-24T06:09:32;94112.41;;;22.81;100.00
10079;BME280;5078;42.544;22.966;2023-08-24T06:11:58;94125.22;;;23.19;97.46
10079;BME280;5078;42.544;22.966;2023-08-24T06:14:25;94117.84;;;23.15;96.85
10079;BME280;5078;42.544;22.966;2023-08-24T06:16:52;94120.13;;;23.06;98.41
10079;BME280;5078;42.544;22.966;2023-08-24T06:19:20;94117.41;;;23.40;96.14
10079;BME280;5078;42.544;22.966;2023-08-24T06:21:47;94117.38;;;23.57;93.37
10079;BME280;5078;42.544;22.966;2023-08-24T06:24:14;94116.91;;;23.26;97.24
10079;BME280;5078;42.544;22.966;2023-08-24T06:26:41;94121.13;;;23.00;100.00
10079;BME280;5078;42.544;22.966;2023-08-24T06:29:07;94120.78;;;23.30;99.79
10079;BME280;5078;42.544;22.966;2023-08-24T06:31:34;94121.19;;;24.22;91.15
10079;BME280;5078;42.544;22.966;2023-08-24T06:34:01;94116.88;;;24.26;90.89
10079;BME280;5078;42.544;22.966;2023-08-24T06:36:29;94122.84;;;24.77;86.37
10079;BME280;5078;42.544;22.966;2023-08-24T06:38:55;94125.22;;;23.97;90.70
10079;BME280;5078;42.544;22.966;2023-08-24T06:41:24;94119.41;;;23.88;91.13
10079;BME280;5078;42.544;22.966;2023-08-24T06:43:50;94118.16;;;23.96;93.96
10079;BME280;5078;42.544;22.966;2023-08-24T06:46:19;94120.13;;;24.77;85.18
10079;BME280;5078;42.544;22.966;2023-08-24T06:48:45;94120.22;;;25.62;73.87
10079;BME280;5078;42.544;22.966;2023-08-24T06:51:12;94116.69;;;26.09;69.09
10079;BME280;5078;42.544;22.966;2023-08-24T06:53:40;94118.59;;;26.09;69.17
10079;BME280;5078;42.544;22.966;2023-08-24T06:56:08;94118.91;;;24.95;76.43
10079;BME280;5078;42.544;22.966;2023-08-24T06:58:35;94115.31;;;26.07;70.48
10079;BME280;5078;42.544;22.966;2023-08-24T07:01:01;94120.00;;;26.21;67.67
10079;BME280;5078;42.544;22.966;2023-08-24T07:03:31;94117.69;;;26.71;63.36
10079;BME280;5078;42.544;22.966;2023-08-24T07:05:58;94113.59;;;27.71;57.33
10079;BME280;5078;42.544;22.966;2023-08-24T07:08:25;94119.75;;;28.02;56.08
10079;BME280;5078;42.544;22.966;2023-08-24T07:10:53;94109.06;;;28.21;55.54
10079;BME280;5078;42.544;22.966;2023-08-24T07:13:20;94109.78;;;28.37;54.58
10079;BME280;5078;42.544;22.966;2023-08-24T07:15:46;94098.66;;;28.78;53.31
10079;BME280;5078;42.544;22.966;2023-08-24T07:18:13;94104.75;;;28.65;53.56
10079;BME280;5078;42.544;22.966;2023-08-24T07:20:40;94090.88;;;28.01;57.07
10079;BME280;5078;42.544;22.966;2023-08-24T07:23:06;94098.22;;;28.60;54.27
10079;BME280;5078;42.544;22.966;2023-08-24T07:25:33;94094.28;;;28.32;55.33
10079;BME280;5078;42.544;22.966;2023-08-24T07:28:01;94086.31;;;28.46;55.14
10079;BME280;5078;42.544;22.966;2023-08-24T07:30:28;94083.25;;;29.32;51.72
10079;BME280;5078;42.544;22.966;2023-08-24T07:32:55;94087.38;;;28.50;53.93
10079;BME280;5078;42.544;22.966;2023-08-24T07:35:22;94080.31;;;29.81;50.57
10079;BME280;5078;42.544;22.966;2023-08-24T07:37:50;94080.44;;;30.57;49.25
10079;BME280;5078;42.544;22.966;2023-08-24T07:40:17;94070.91;;;31.44;46.02
10079;BME280;5078;42.544;22.966;2023-08-24T07:42:44;94073.25;;;31.65;45.15
10079;BME280;5078;42.544;22.966;2023-08-24T07:45:13;94078.88;;;31.87;44.22
10079;BME280;5078;42.544;22.966;2023-08-24T07:47:40;94075.34;;;32.28;43.88
10079;BME280;5078;42.544;22.966;2023-08-24T07:50:08;94078.72;;;32.75;41.51
10079;BME280;5078;42.544;22.966;2023-08-24T07:52:36;94072.91;;;33.36;39.79
10079;BME280;5078;42.544;22.966;2023-08-24T07:55:03;94071.22;;;32.67;40.01
10079;BME280;5078;42.544;22.966;2023-08-24T07:57:30;94072.69;;;33.32;39.74
10079;BME280;5078;42.544;22.966;2023-08-24T07:59:57;94068.88;;;32.97;38.55
10079;BME280;5078;42.544;22.966;2023-08-24T08:02:26;94071.91;;;32.09;41.10
10079;BME280;5078;42.544;22.966;2023-08-24T08:04:56;94067.88;;;32.42;40.40
10079;BME280;5078;42.544;22.966;2023-08-24T08:07:24;94061.69;;;32.37;40.64
10079;BME280;5078;42.544;22.966;2023-08-24T08:09:50;94044.91;;;32.88;39.46
10079;BME280;5078;42.544;22.966;2023-08-24T08:12:17;94061.63;;;33.68;39.44
10079;BME280;5078;42.544;22.966;2023-08-24T08:14:44;94065.38;;;34.12;37.89
10079;BME280;5078;42.544;22.966;2023-08-24T08:17:11;94062.72;;;34.56;37.01
10079;BME280;5078;42.544;22.966;2023-08-24T08:19:39;94058.38;;;35.07;35.71
10079;BME280;5078;42.544;22.966;2023-08-24T08:22:06;94059.53;;;34.80;35.49
10079;BME280;5078;42.544;22.966;2023-08-24T08:24:33;94055.00;;;34.75;35.55
10079;BME280;5078;42.544;22.966;2023-08-24T08:27:00;94043.09;;;35.44;35.17
10079;BME280;5078;42.544;22.966;2023-08-24T08:29:26;94044.63;;;34.90;36.38
10079;BME280;5078;42.544;22.966;2023-08-24T08:31:53;94045.50;;;34.24;37.31
10079;BME280;5078;42.544;22.966;2023-08-24T08:34:20;94041.53;;;35.35;35.59
10079;BME280;5078;42.544;22.966;2023-08-24T08:36:48;94032.25;;;35.48;35.45
10079;BME280;5078;42.544;22.966;2023-08-24T08:39:15;94030.19;;;34.93;34.95
10079;BME280;5078;42.544;22.966;2023-08-24T08:41:43;94034.72;;;35.32;33.95
10079;BME280;5078;42.544;22.966;2023-08-24T08:44:13;94029.22;;;35.24;34.69
10079;BME280;5078;42.544;22.966;2023-08-24T08:46:41;94023.06;;;34.83;34.82
10079;BME280;5078;42.544;22.966;2023-08-24T08:49:08;94017.41;;;34.71;34.36
10079;BME280;5078;42.544;22.966;2023-08-24T08:51:36;94025.16;;;34.69;34.95
10079;BME280;5078;42.544;22.966;2023-08-24T08:54:04;94018.97;;;35.33;33.85
10079;BME280;5078;42.544;22.966;2023-08-24T08:56:31;94024.34;;;35.03;34.23
10079;BME280;5078;42.544;22.966;2023-08-24T08:58:59;94022.25;;;34.65;36.00
10079;BME280;5078;42.544;22.966;2023-08-24T09:01:27;94022.41;;;35.21;34.23
10079;BME280;5078;42.544;22.966;2023-08-24T09:03:54;94018.50;;;35.22;32.20
10079;BME280;5078;42.544;22.966;2023-08-24T09:06:21;94011.81;;;34.45;33.08
10079;BME280;5078;42.544;22.966;2023-08-24T09:08:48;94009.25;;;35.35;32.21
10079;BME280;5078;42.544;22.966;2023-08-24T09:11:17;94009.34;;;35.65;32.85
10079;BME280;5078;42.544;22.966;2023-08-24T09:13:44;94003.56;;;35.88;31.74
10079;BME280;5078;42.544;22.966;2023-08-24T09:16:11;94002.78;;;34.96;32.57
10079;BME280;5078;42.544;22.966;2023-08-24T09:18:43;94008.69;;;35.59;32.54
10079;BME280;5078;42.544;22.966;2023-08-24T09:21:10;93995.72;;;35.51;30.17
10079;BME280;5078;42.544;22.966;2023-08-24T09:23:38;93988.09;;;35.95;31.44
10079;BME280;5078;42.544;22.966;2023-08-24T09:26:04;93991.91;;;36.83;30.34
10079;BME280;5078;42.544;22.966;2023-08-24T09:28:33;93987.25;;;36.96;30.49
10079;BME280;5078;42.544;22.966;2023-08-24T09:31:01;93983.88;;;36.48;29.98
10079;BME280;5078;42.544;22.966;2023-08-24T09:33:29;93989.31;;;36.15;29.89
10079;BME280;5078;42.544;22.966;2023-08-24T09:35:56;93982.03;;;36.02;30.54
10079;BME280;5078;42.544;22.966;2023-08-24T09:38:27;93979.94;;;35.99;31.28
10079;BME280;5078;42.544;22.966;2023-08-24T09:40:55;93979.19;;;35.60;31.85
10079;BME280;5078;42.544;22.966;2023-08-24T09:43:22;93965.59;;;35.37;30.95
10079;BME280;5078;42.544;22.966;2023-08-24T09:45:51;93974.41;;;36.07;29.62
10079;BME280;5078;42.544;22.966;2023-08-24T09:48:18;93975.00;;;36.43;30.86
10079;BME280;5078;42.544;22.966;2023-08-24T09:50:46;93966.16;;;36.28;30.92
10079;BME280;5078;42.544;22.966;2023-08-24T09:53:16;93967.16;;;35.56;31.35
10079;BME280;5078;42.544;22.966;2023-08-24T09:55:44;93959.34;;;35.96;31.37
10079;BME280;5078;42.544;22.966;2023-08-24T09:58:15;93950.53;;;36.33;31.99
10079;BME280;5078;42.544;22.966;2023-08-24T10:00:45;93953.31;;;36.03;31.82
10079;BME280;5078;42.544;22.966;2023-08-24T10:03:16;93954.50;;;35.63;31.43
10079;BME280;5078;42.544;22.966;2023-08-24T10:05:46;93942.78;;;35.96;29.74
10079;BME280;5078;42.544;22.966;2023-08-24T10:08:14;93944.16;;;35.81;29.76
10079;BME280;5078;42.544;22.966;2023-08-24T10:10:42;93936.97;;;36.82;28.41
10079;BME280;5078;42.544;22.966;2023-08-24T10:13:14;93946.13;;;37.28;27.31
10079;BME280;5078;42.544;22.966;2023-08-24T10:15:44;93937.22;;;36.35;29.05
10079;BME280;5078;42.544;22.966;2023-08-24T10:18:14;93932.19;;;37.37;28.57
10079;BME280;5078;42.544;22.966;2023-08-24T10:20:42;93927.97;;;37.64;28.13
10079;BME280;5078;42.544;22.966;2023-08-24T10:23:11;93929.88;;;36.93;29.40
10079;BME280;5078;42.544;22.966;2023-08-24T10:25:39;93925.66;;;36.54;29.64
10079;BME280;5078;42.544;22.966;2023-08-24T10:28:07;93915.25;;;36.38;30.15
10079;BME280;5078;42.544;22.966;2023-08-24T10:30:35;93920.31;;;36.90;29.39
10079;BME280;5078;42.544;22.966;2023-08-24T10:33:03;93924.53;;;36.34;29.91
10079;BME280;5078;42.544;22.966;2023-08-24T10:35:32;93918.47;;;36.19;30.06
10079;BME280;5078;42.544;22.966;2023-08-24T10:37:59;93913.59;;;36.79;28.68
10079;BME280;5078;42.544;22.966;2023-08-24T10:40:32;93913.56;;;37.00;28.97
10079;BME280;5078;42.544;22.966;2023-08-24T10:43:02;93900.97;;;36.15;29.46
10079;BME280;5078;42.544;22.966;2023-08-24T10:45:54;93905.91;;;35.71;30.25
10079;BME280;5078;42.544;22.966;2023-08-24T10:48:22;93900.59;;;35.28;29.50
10079;BME280;5078;42.544;22.966;2023-08-24T10:51:17;93905.09;;;34.85;28.72
10079;BME280;5078;42.544;22.966;2023-08-24T10:53:46;93904.47;;;34.71;29.99
10079;BME280;5078;42.544;22.966;2023-08-24T10:56:13;93890.53;;;34.41;30.39
10079;BME280;5078;42.544;22.966;2023-08-24T10:58:40;93888.72;;;34.02;30.89
10079;BME280;5078;42.544;22.966;2023-08-24T11:01:14;93893.22;;;34.93;30.28
10079;BME280;5078;42.544;22.966;2023-08-24T11:03:40;93903.63;;;34.79;30.27
10079;BME280;5078;42.544;22.966;2023-08-24T11:06:19;93888.59;;;34.33;29.22
10079;BME280;5078;42.544;22.966;2023-08-24T11:08:47;93902.03;;;34.08;33.66
10079;BME280;5078;42.544;22.966;2023-08-24T11:11:20;93896.13;;;33.84;34.84
10079;BME280;5078;42.544;22.966;2023-08-24T11:14:15;93897.91;;;33.71;35.45
10079;BME280;5078;42.544;22.966;2023-08-24T11:16:45;93904.53;;;32.99;37.49
10079;BME280;5078;42.544;22.966;2023-08-24T11:19:13;93903.03;;;32.02;46.10
10079;BME280;5078;42.544;22.966;2023-08-24T11:21:44;93906.94;;;30.20;47.29
10079;BME280;5078;42.544;22.966;2023-08-24T11:24:12;93895.25;;;29.58;52.27
10079;BME280;5078;42.544;22.966;2023-08-24T11:26:43;93877.78;;;29.35;49.96
10079;BME280;5078;42.544;22.966;2023-08-24T11:29:10;93873.34;;;29.20;53.75
10079;BME280;5078;42.544;22.966;2023-08-24T11:31:37;93887.16;;;29.29;48.24
10079;BME280;5078;42.544;22.966;2023-08-24T11:34:04;93886.06;;;29.30;50.15
10079;BME280;5078;42.544;22.966;2023-08-24T11:36:42;93911.47;;;29.06;59.67
10079;BME280;5078;42.544;22.966;2023-08-24T11:39:15;93912.94;;;28.64;64.61
10079;BME280;5078;42.544;22.966;2023-08-24T11:41:43;93922.13;;;28.39;65.60
10079;BME280;5078;42.544;22.966;2023-08-24T11:44:10;93913.00;;;28.20;62.56
10079;BME280;5078;42.544;22.966;2023-08-24T11:46:37;93921.13;;;27.90;68.02
10079;BME280;5078;42.544;22.966;2023-08-24T11:49:04;93905.34;;;27.32;75.09
10079;BME280;5078;42.544;22.966;2023-08-24T11:51:31;93919.78;;;27.28;69.61
10079;BME280;5078;42.544;22.966;2023-08-24T11:54:01;93925.72;;;27.40;73.38
10079;BME280;5078;42.544;22.966;2023-08-24T11:56:28;93914.28;;;27.38;69.43
10079;BME280;5078;42.544;22.966;2023-08-24T11:58:54;93906.91;;;27.49;70.61
10079;BME280;5078;42.544;22.966;2023-08-24T12:01:21;93912.81;;;27.61;65.77
10079;BME280;5078;42.544;22.966;2023-08-24T12:03:48;93920.88;;;27.87;62.29
10079;BME280;5078;42.544;22.966;2023-08-24T12:06:16;93923.13;;;28.19;60.86
10079;BME280;5078;42.544;22.966;2023-08-24T12:08:45;93922.09;;;28.44;59.67
10079;BME280;5078;42.544;22.966;2023-08-24T12:11:15;93919.69;;;28.72;56.82
10079;BME280;5078;42.544;22.966;2023-08-24T12:13:43;93908.19;;;28.75;53.14
10079;BME280;5078;42.544;22.966;2023-08-24T12:16:12;93916.63;;;29.02;52.75
10079;BME280;5078;42.544;22.966;2023-08-24T12:18:50;93907.75;;;29.21;51.72
10079;BME280;5078;42.544;22.966;2023-08-24T12:21:17;93911.03;;;29.42;49.72
10079;BME280;5078;42.544;22.966;2023-08-24T12:23:45;93919.88;;;29.34;50.28
10079;BME280;5078;42.544;22.966;2023-08-24T12:26:19;93917.09;;;29.39;50.50
10079;BME280;5078;42.544;22.966;2023-08-24T12:28:49;93918.63;;;29.69;53.36
10079;BME280;5078;42.544;22.966;2023-08-24T12:31:17;93921.75;;;29.81;50.26
10079;BME280;5078;42.544;22.966;2023-08-24T12:33:44;93919.00;;;30.00;49.53
10079;BME280;5078;42.544;22.966;2023-08-24T12:36:12;93916.72;;;30.07;48.07
10079;BME280;5078;42.544;22.966;2023-08-24T12:38:38;93923.06;;;30.22;48.78
10079;BME280;5078;42.544;22.966;2023-08-24T12:41:07;93918.88;;;30.29;44.35
10079;BME280;5078;42.544;22.966;2023-08-24T12:43:35;93913.03;;;30.69;42.88
10079;BME280;5078;42.544;22.966;2023-08-24T12:46:01;93918.84;;;30.48;44.39
10079;BME280;5078;42.544;22.966;2023-08-24T12:48:28;93915.84;;;30.64;43.97
10079;BME280;5078;42.544;22.966;2023-08-24T12:50:55;93917.06;;;30.90;43.34
10079;BME280;5078;42.544;22.966;2023-08-24T12:53:22;93913.72;;;31.35;43.14
10079;BME280;5078;42.544;22.966;2023-08-24T12:55:48;93933.72;;;31.08;45.62
10079;BME280;5078;42.544;22.966;2023-08-24T12:58:15;93938.38;;;30.74;47.24
10079;BME280;5078;42.544;22.966;2023-08-24T13:00:44;93931.22;;;30.08;47.92